Time;durP1;ratioP1;P1;durP2;ratioP2;P2;SDS_P1;SDS_P2;PMS_P1;PMS_P2;Temp;Humidity;BMP_temperature;BMP_pressure;BME280_temperature;BME280_humidity;BME280_pressure;Samples;Min_cycle;Max_cycle;Signal;HPM_P1;HPM_P2
2021/12/17 00:01:01;;;;;;;16.67;10.23;;;;;;;;;;5018746;28;20151;-82
2021/12/17 00:03:47;;;;;;;19.00;11.13;;;;;;;;;;5026952;28;20045;-83
2021/12/17 00:06:59;;;;;;;16.50;10.50;;;;;;;;;;5006008;28;20032;-81
2021/12/17 00:09:08;;;;;;;18.65;10.65;;;;;;;;;;4995262;28;20845;-82
2021/12/17 00:11:37;;;;;;;18.00;10.88;;;;;;;;;;5030378;28;20050;-82
2021/12/17 00:14:05;;;;;;;16.67;11.10;;;;;;;;;;4990536;28;20044;-82
2021/12/17 00:16:39;;;;;;;17.73;11.60;;;;;;;;;;5014604;28;20033;-82
2021/12/17 00:50:24;;;;;;;18.08;9.15;;;;;;;;;;5015001;28;20072;-82
2021/12/17 00:52:51;;;;;;;17.65;10.18;;;;;;;;;;5013511;28;20447;-81
2021/12/17 00:55:28;;;;;;;16.70;9.88;;;;;;;;;;5008025;28;20049;-81
2021/12/17 00:57:56;;;;;;;17.35;10.45;;;;;;;;;;4997666;28;20042;-81
2021/12/17 01:00:26;;;;;;;18.65;8.77;;;;;;;;;;5001201;28;20073;-84
2021/12/17 01:02:56;;;;;;;15.23;8.60;;;;;;;;;;4992887;28;20045;-83
2021/12/17 01:05:31;;;;;;;15.05;7.38;;;;;;;;;;4992648;28;20065;-83
2021/12/17 01:08:01;;;;;;;13.23;6.82;;;;;;;;;;4990883;28;20040;-83
2021/12/17 01:10:30;;;;;;;14.95;7.43;;;;;;;;;;4995226;28;20123;-83
2021/12/17 01:12:59;;;;;;;11.32;6.00;;;;;;;;;;4987505;28;20036;-83
2021/12/17 01:15:27;;;;;;;12.52;6.00;;;;;;;;;;5007287;28;20091;-82
2021/12/17 01:18:03;;;;;;;13.02;6.05;;;;;;;;;;4995744;28;20029;-82
2021/12/17 01:23:43;;;;;;;12.13;5.90;;;;;;;;;;5029766;28;20063;-83
2021/12/17 01:37:13;;;;;;;10.68;4.95;;;;;;;;;;5029985;28;20155;-83
2021/12/17 01:42:22;;;;;;;10.23;4.65;;;;;;;;;;5035644;28;20040;-83
2021/12/17 01:44:55;;;;;;;10.00;4.60;;;;;;;;;;5015930;28;20033;-82
2021/12/17 01:47:22;;;;;;;11.60;4.78;;;;;;;;;;5014637;28;20546;-83
2021/12/17 02:00:55;;;;;;;12.85;4.82;;;;;;;;;;4991428;28;20092;-82
2021/12/17 02:03:24;;;;;;;10.98;4.70;;;;;;;;;;4998588;28;20479;-82
2021/12/17 02:06:12;;;;;;;12.82;6.05;;;;;;;;;;4993395;28;20132;-82
2021/12/17 02:08:44;;;;;;;14.82;5.60;;;;;;;;;;4975342;28;20139;-83
2021/12/17 02:20:11;;;;;;;10.65;4.57;;;;;;;;;;4975999;28;20044;-82
2021/12/17 02:23:09;;;;;;;10.00;4.57;;;;;;;;;;4975624;28;20849;-81
2021/12/17 02:33:58;;;;;;;9.23;3.90;;;;;;;;;;4862580;29;20099;-82
2021/12/17 02:36:30;;;;;;;9.50;3.83;;;;;;;;;;4870156;29;20972;-82
2021/12/17 02:39:37;;;;;;;9.05;4.22;;;;;;;;;;4850537;29;20044;-82
2021/12/17 02:47:28;;;;;;;10.68;3.70;;;;;;;;;;4847902;29;20052;-81
2021/12/17 02:49:56;;;;;;;8.95;3.83;;;;;;;;;;4828277;29;20045;-81
2021/12/17 02:52:27;;;;;;;9.13;3.53;;;;;;;;;;4848930;29;20144;-82
2021/12/17 02:54:57;;;;;;;9.05;4.05;;;;;;;;;;4842575;29;20052;-81
2021/12/17 02:57:28;;;;;;;8.82;3.90;;;;;;;;;;4849072;29;20056;-81
2021/12/17 02:59:55;;;;;;;9.35;3.97;;;;;;;;;;4845598;29;20039;-82
2021/12/17 03:02:26;;;;;;;9.73;3.90;;;;;;;;;;4847316;29;20102;-81
2021/12/17 03:04:55;;;;;;;9.25;4.00;;;;;;;;;;4914555;28;20376;-81
2021/12/17 03:07:25;;;;;;;8.77;3.53;;;;;;;;;;4929628;28;20101;-81
2021/12/17 03:10:06;;;;;;;8.80;3.55;;;;;;;;;;4933235;28;20038;-81
2021/12/17 03:13:00;;;;;;;8.02;3.75;;;;;;;;;;4957316;28;20046;-82
2021/12/17 03:15:50;;;;;;;11.02;3.88;;;;;;;;;;4943827;28;20043;-82
2021/12/17 03:23:51;;;;;;;7.85;3.47;;;;;;;;;;4976619;28;20046;-81
2021/12/17 03:26:18;;;;;;;9.23;4.07;;;;;;;;;;4975393;28;20046;-81
2021/12/17 03:28:49;;;;;;;10.35;4.15;;;;;;;;;;4977650;28;20041;-81
2021/12/17 03:31:16;;;;;;;9.38;3.53;;;;;;;;;;4976355;28;20022;-82
2021/12/17 03:33:44;;;;;;;9.52;3.63;;;;;;;;;;4975857;28;20038;-81
2021/12/17 03:36:18;;;;;;;8.90;3.67;;;;;;;;;;4953088;28;20050;-79
2021/12/17 03:38:46;;;;;;;11.82;4.05;;;;;;;;;;4977261;28;20041;-79
2021/12/17 03:43:43;;;;;;;8.45;3.58;;;;;;;;;;4975663;28;20522;-78
2021/12/17 03:46:10;;;;;;;10.68;4.15;;;;;;;;;;4963106;28;20608;-80
2021/12/17 03:48:41;;;;;;;10.27;3.97;;;;;;;;;;4972241;28;20378;-79
2021/12/17 03:51:13;;;;;;;9.70;4.18;;;;;;;;;;4988289;28;20068;-80
2021/12/17 03:53:41;;;;;;;8.55;3.50;;;;;;;;;;4993943;28;20038;-79
2021/12/17 03:56:13;;;;;;;8.07;3.33;;;;;;;;;;4983211;28;21905;-80
2021/12/17 03:58:42;;;;;;;10.52;4.00;;;;;;;;;;4991643;28;20107;-79
2021/12/17 04:01:11;;;;;;;11.02;4.15;;;;;;;;;;4992317;28;21624;-80
2021/12/17 04:03:38;;;;;;;9.27;4.47;;;;;;;;;;4989006;28;20046;-79
2021/12/17 04:06:07;;;;;;;9.20;4.18;;;;;;;;;;5002512;28;20040;-80
2021/12/17 04:08:34;;;;;;;9.45;4.25;;;;;;;;;;4974835;28;20049;-80
2021/12/17 04:11:05;;;;;;;9.32;4.10;;;;;;;;;;4970751;28;20048;-79
2021/12/17 04:13:38;;;;;;;8.85;3.97;;;;;;;;;;4976242;28;21521;-79
2021/12/17 04:16:09;;;;;;;8.57;4.20;;;;;;;;;;4969767;28;20041;-79
2021/12/17 04:18:47;;;;;;;10.50;4.20;;;;;;;;;;4974405;28;20034;-80
2021/12/17 04:21:15;;;;;;;10.52;4.03;;;;;;;;;;4975956;28;20128;-80
2021/12/17 04:23:44;;;;;;;8.73;4.00;;;;;;;;;;4978518;28;20030;-79
2021/12/17 04:26:15;;;;;;;7.60;3.50;;;;;;;;;;4963968;28;20591;-79
2021/12/17 04:28:46;;;;;;;8.80;3.70;;;;;;;;;;4975961;28;20084;-79
2021/12/17 04:31:16;;;;;;;8.32;4.00;;;;;;;;;;4980793;28;20506;-79
2021/12/17 04:33:44;;;;;;;9.98;4.70;;;;;;;;;;4994044;28;20147;-79
2021/12/17 04:36:18;;;;;;;9.40;4.47;;;;;;;;;;4990191;28;20033;-80
2021/12/17 04:38:47;;;;;;;9.05;4.32;;;;;;;;;;4996775;28;20535;-81
2021/12/17 04:44:16;;;;;;;7.88;3.85;;;;;;;;;;5010473;28;20036;-79
2021/12/17 04:57:37;;;;;;;9.50;5.18;;;;;;;;;;5030094;28;21286;-79
2021/12/17 05:00:12;;;;;;;9.70;4.82;;;;;;;;;;5026635;28;20041;-79
2021/12/17 05:02:44;;;;;;;9.82;5.05;;;;;;;;;;4999848;28;20036;-80
2021/12/17 05:05:12;;;;;;;10.68;4.75;;;;;;;;;;5008808;28;20088;-81
2021/12/17 05:07:47;;;;;;;10.23;4.90;;;;;;;;;;5014425;28;20029;-82
2021/12/17 05:10:41;;;;;;;11.15;4.75;;;;;;;;;;4997663;28;20103;-81
2021/12/17 05:18:52;;;;;;;12.65;5.22;;;;;;;;;;5021498;28;20401;-81
2021/12/17 05:21:30;;;;;;;10.35;5.13;;;;;;;;;;4974915;28;20160;-81
2021/12/17 05:23:57;;;;;;;9.75;5.03;;;;;;;;;;4973984;28;20037;-81
2021/12/17 05:26:27;;;;;;;10.50;5.07;;;;;;;;;;4975825;28;20068;-81
2021/12/17 05:28:56;;;;;;;10.32;4.47;;;;;;;;;;4973570;28;20030;-81
2021/12/17 05:31:23;;;;;;;10.10;5.18;;;;;;;;;;4980676;28;20042;-81
2021/12/17 05:33:56;;;;;;;9.18;4.90;;;;;;;;;;4975834;28;21344;-79
2021/12/17 05:36:25;;;;;;;8.68;4.68;;;;;;;;;;4976686;28;20121;-79
2021/12/17 05:38:57;;;;;;;9.65;5.03;;;;;;;;;;4977619;28;20025;-79
2021/12/17 05:41:25;;;;;;;9.23;5.07;;;;;;;;;;4978474;28;20030;-80
2021/12/17 05:43:56;;;;;;;9.00;5.05;;;;;;;;;;4974824;28;20482;-79
2021/12/17 05:46:49;;;;;;;11.45;4.75;;;;;;;;;;4978513;28;20132;-79
2021/12/17 05:49:27;;;;;;;11.70;5.40;;;;;;;;;;4996249;28;20118;-80
2021/12/17 05:51:58;;;;;;;9.57;5.32;;;;;;;;;;4995721;28;20430;-79
2021/12/17 05:54:26;;;;;;;11.48;6.68;;;;;;;;;;5013765;28;20041;-80
2021/12/17 05:56:55;;;;;;;12.10;6.00;;;;;;;;;;5008565;28;21284;-79
2021/12/17 05:59:32;;;;;;;11.52;5.47;;;;;;;;;;5014126;28;20029;-79
2021/12/17 06:02:01;;;;;;;14.52;6.78;;;;;;;;;;5008469;28;20115;-80
2021/12/17 06:04:30;;;;;;;13.88;7.07;;;;;;;;;;5029576;28;20041;-80
2021/12/17 06:06:56;;;;;;;14.65;7.15;;;;;;;;;;5032510;28;20556;-79
2021/12/17 06:09:25;;;;;;;11.68;6.57;;;;;;;;;;5005994;28;20163;-79
2021/12/17 06:11:52;;;;;;;11.98;6.93;;;;;;;;;;5034907;28;20090;-79
2021/12/17 06:14:24;;;;;;;11.40;6.53;;;;;;;;;;5034135;28;20463;-79
2021/12/17 06:16:54;;;;;;;13.02;6.38;;;;;;;;;;5035218;28;20120;-79
2021/12/17 06:19:21;;;;;;;11.13;5.93;;;;;;;;;;5032729;28;20045;-79
2021/12/17 06:21:49;;;;;;;11.68;5.90;;;;;;;;;;5022503;28;20032;-79
2021/12/17 06:24:18;;;;;;;10.65;5.57;;;;;;;;;;5033898;28;20048;-79
2021/12/17 06:26:45;;;;;;;12.15;6.30;;;;;;;;;;5018022;28;20170;-79
2021/12/17 06:29:16;;;;;;;13.40;6.60;;;;;;;;;;5012117;28;20033;-79
2021/12/17 06:31:46;;;;;;;13.23;6.40;;;;;;;;;;5020058;28;20900;-80
2021/12/17 06:34:13;;;;;;;10.52;5.75;;;;;;;;;;5002479;28;20104;-80
2021/12/17 06:36:43;;;;;;;10.27;5.35;;;;;;;;;;5002797;28;20033;-80
2021/12/17 06:39:14;;;;;;;11.18;6.22;;;;;;;;;;5008186;28;20036;-79
2021/12/17 06:41:42;;;;;;;11.05;5.78;;;;;;;;;;4998220;28;20042;-79
2021/12/17 06:44:12;;;;;;;13.20;6.30;;;;;;;;;;5007299;28;20038;-79
2021/12/17 06:49:26;;;;;;;11.85;5.97;;;;;;;;;;4993863;28;20061;-79
2021/12/17 07:10:49;;;;;;;14.75;6.63;;;;;;;;;;4998700;28;20402;-79
2021/12/17 07:32:52;;;;;;;12.85;7.18;;;;;;;;;;4999172;28;20527;-80
2021/12/17 07:35:37;;;;;;;11.35;6.35;;;;;;;;;;4998395;28;20045;-80
2021/12/17 07:40:55;;;;;;;11.60;6.40;;;;;;;;;;4994611;28;20138;-80
2021/12/17 07:43:38;;;;;;;11.60;7.00;;;;;;;;;;4994978;28;20416;-80
2021/12/17 07:46:10;;;;;;;12.70;7.85;;;;;;;;;;4991275;28;20042;-80
2021/12/17 07:48:40;;;;;;;13.35;8.07;;;;;;;;;;4999902;28;20033;-80
2021/12/17 07:51:12;;;;;;;17.27;8.65;;;;;;;;;;5025894;28;20038;-80
2021/12/17 07:53:39;;;;;;;20.77;8.98;;;;;;;;;;5014151;28;20029;-80
2021/12/17 07:56:10;;;;;;;19.38;8.05;;;;;;;;;;5012686;28;20079;-80
2021/12/17 07:58:37;;;;;;;15.05;7.47;;;;;;;;;;5011578;28;20052;-79
2021/12/17 08:01:04;;;;;;;15.02;8.15;;;;;;;;;;5014178;28;20061;-79
2021/12/17 08:03:31;;;;;;;13.50;7.68;;;;;;;;;;5010473;28;20653;-80
2021/12/17 08:05:58;;;;;;;13.48;8.45;;;;;;;;;;5015601;28;20035;-79
2021/12/17 08:08:35;;;;;;;15.73;8.93;;;;;;;;;;5016913;28;20053;-79
2021/12/17 08:11:03;;;;;;;14.05;7.60;;;;;;;;;;4984269;28;20033;-80
2021/12/17 08:13:34;;;;;;;14.18;7.38;;;;;;;;;;5017032;28;20041;-80
2021/12/17 08:26:52;;;;;;;12.57;7.60;;;;;;;;;;4999858;28;20041;-79
2021/12/17 08:32:01;;;;;;;13.10;7.38;;;;;;;;;;4989621;28;20381;-80
2021/12/17 08:34:28;;;;;;;10.68;5.50;;;;;;;;;;4993017;28;20059;-80
2021/12/17 08:36:55;;;;;;;11.02;5.53;;;;;;;;;;4995258;28;20119;-80
2021/12/17 08:39:24;;;;;;;11.23;6.05;;;;;;;;;;5014772;28;20064;-80
2021/12/17 08:41:52;;;;;;;11.18;5.38;;;;;;;;;;4989198;28;20215;-80
2021/12/17 08:44:19;;;;;;;12.82;5.82;;;;;;;;;;5012987;28;20087;-80
2021/12/17 08:46:47;;;;;;;12.75;6.03;;;;;;;;;;4996179;28;20041;-80
2021/12/17 08:49:14;;;;;;;11.82;6.20;;;;;;;;;;4981630;28;20088;-80
2021/12/17 08:51:43;;;;;;;11.32;6.78;;;;;;;;;;4982337;28;20065;-80
2021/12/17 08:54:11;;;;;;;13.50;7.28;;;;;;;;;;4986412;28;20073;-80
2021/12/17 08:56:44;;;;;;;14.55;7.82;;;;;;;;;;4993804;28;20049;-80
2021/12/17 08:59:14;;;;;;;12.85;7.28;;;;;;;;;;4990579;28;20180;-80
2021/12/17 09:01:41;;;;;;;16.10;8.98;;;;;;;;;;4995072;28;20639;-80
2021/12/17 09:04:09;;;;;;;13.38;8.63;;;;;;;;;;4992322;28;20050;-79
2021/12/17 09:06:36;;;;;;;13.05;7.97;;;;;;;;;;5011219;28;20120;-80
2021/12/17 09:09:05;;;;;;;14.10;7.45;;;;;;;;;;4994007;28;20029;-79
2021/12/17 09:11:33;;;;;;;13.73;8.55;;;;;;;;;;4997094;28;20068;-79
2021/12/17 09:14:01;;;;;;;13.50;8.35;;;;;;;;;;4990788;28;20065;-80
2021/12/17 09:16:28;;;;;;;13.57;8.00;;;;;;;;;;5002194;28;20545;-79
2021/12/17 09:18:56;;;;;;;13.00;7.53;;;;;;;;;;5008163;28;20048;-79
2021/12/17 09:21:23;;;;;;;14.43;6.93;;;;;;;;;;5006895;28;20056;-80
2021/12/17 09:23:52;;;;;;;11.57;6.05;;;;;;;;;;5008376;28;20048;-80
2021/12/17 09:26:21;;;;;;;10.02;4.97;;;;;;;;;;5025985;28;20040;-80
2021/12/17 09:28:49;;;;;;;11.70;6.68;;;;;;;;;;5024979;28;20037;-80
2021/12/17 09:31:17;;;;;;;13.25;6.65;;;;;;;;;;5017802;28;20048;-79
2021/12/17 09:33:46;;;;;;;12.43;6.65;;;;;;;;;;5020304;28;20118;-79
2021/12/17 09:36:16;;;;;;;19.23;11.05;;;;;;;;;;5029785;28;20028;-79
2021/12/17 09:38:42;;;;;;;12.80;7.03;;;;;;;;;;5021955;28;20021;-79
2021/12/17 09:41:09;;;;;;;12.65;6.47;;;;;;;;;;5027510;28;20049;-79
2021/12/17 09:43:37;;;;;;;11.70;6.43;;;;;;;;;;5019543;28;20047;-79
2021/12/17 09:46:07;;;;;;;11.25;6.43;;;;;;;;;;5027785;28;20082;-79
2021/12/17 09:48:34;;;;;;;13.73;8.57;;;;;;;;;;5033314;28;20060;-79
2021/12/17 09:51:04;;;;;;;15.70;8.75;;;;;;;;;;5026600;28;20535;-79
2021/12/17 09:53:31;;;;;;;18.92;9.30;;;;;;;;;;5029924;28;20485;-79
2021/12/17 09:55:59;;;;;;;13.05;7.80;;;;;;;;;;4984276;28;20069;-79
2021/12/17 09:58:29;;;;;;;13.68;7.90;;;;;;;;;;5030242;28;20040;-79
2021/12/17 10:00:56;;;;;;;14.15;6.50;;;;;;;;;;5013497;28;20068;-79
2021/12/17 10:03:24;;;;;;;12.55;6.97;;;;;;;;;;5014114;28;20045;-79
2021/12/17 10:05:54;;;;;;;10.73;5.70;;;;;;;;;;5012646;28;20037;-80
2021/12/17 10:08:21;;;;;;;13.10;6.47;;;;;;;;;;5001871;28;20080;-80
2021/12/17 10:10:49;;;;;;;10.20;5.30;;;;;;;;;;5017416;28;20037;-79
2021/12/17 10:13:30;;;;;;;11.55;6.10;;;;;;;;;;5013962;28;20036;-79
2021/12/17 10:16:08;;;;;;;25.83;14.10;;;;;;;;;;4998974;28;20192;-80
2021/12/17 10:18:36;;;;;;;17.48;9.73;;;;;;;;;;5019684;28;20139;-79
2021/12/17 10:21:07;;;;;;;12.43;6.47;;;;;;;;;;5014105;28;20048;-79
2021/12/17 10:23:38;;;;;;;12.55;6.82;;;;;;;;;;5003251;28;20468;-80
2021/12/17 10:26:10;;;;;;;11.65;5.55;;;;;;;;;;4998958;28;20033;-80
2021/12/17 10:28:38;;;;;;;9.80;5.18;;;;;;;;;;4999104;28;20040;-80
2021/12/17 10:31:13;;;;;;;11.30;5.63;;;;;;;;;;5013816;28;20052;-80
2021/12/17 10:33:50;;;;;;;12.95;6.53;;;;;;;;;;5003213;28;20912;-80
2021/12/17 10:36:32;;;;;;;10.57;5.03;;;;;;;;;;4999334;28;20037;-79
2021/12/17 10:39:12;;;;;;;10.35;5.18;;;;;;;;;;4986611;28;20034;-79
2021/12/17 10:41:49;;;;;;;11.93;5.60;;;;;;;;;;4981967;28;20041;-81
2021/12/17 10:44:22;;;;;;;10.90;5.60;;;;;;;;;;4979805;28;20046;-80
2021/12/17 10:49:53;;;;;;;11.98;4.43;;;;;;;;;;4952409;28;20037;-80
2021/12/17 10:52:31;;;;;;;10.75;4.75;;;;;;;;;;4970593;28;20049;-79
2021/12/17 10:55:14;;;;;;;11.45;4.93;;;;;;;;;;4977097;28;20208;-79
2021/12/17 10:57:43;;;;;;;11.80;5.50;;;;;;;;;;4990735;28;20038;-79
2021/12/17 11:00:16;;;;;;;9.90;5.53;;;;;;;;;;4972695;28;20046;-80
2021/12/17 11:02:55;;;;;;;11.18;5.30;;;;;;;;;;4973868;28;20033;-80
2021/12/17 11:05:25;;;;;;;9.90;5.30;;;;;;;;;;4990504;28;20057;-80
2021/12/17 11:07:55;;;;;;;11.25;5.10;;;;;;;;;;4992265;28;20215;-79
2021/12/17 11:10:32;;;;;;;11.13;5.72;;;;;;;;;;4994249;28;20215;-79
2021/12/17 11:13:00;;;;;;;10.77;5.10;;;;;;;;;;4999876;28;20040;-80
2021/12/17 11:15:31;;;;;;;9.27;4.38;;;;;;;;;;5021240;28;20485;-80
2021/12/17 11:18:03;;;;;;;11.75;5.55;;;;;;;;;;5012284;28;20086;-79
2021/12/17 11:20:39;;;;;;;17.05;7.88;;;;;;;;;;5011459;28;20064;-80
2021/12/17 11:23:13;;;;;;;11.33;5.50;;;;;;;;;;5011844;28;20103;-80
2021/12/17 11:25:43;;;;;;;10.48;5.20;;;;;;;;;;5018319;28;20128;-79
2021/12/17 11:28:11;;;;;;;11.25;5.75;;;;;;;;;;5007770;28;20040;-79
2021/12/17 11:30:42;;;;;;;14.65;6.72;;;;;;;;;;5024066;28;20148;-80
2021/12/17 11:33:13;;;;;;;12.13;6.50;;;;;;;;;;5001390;28;21407;-80
2021/12/17 11:35:46;;;;;;;10.90;6.30;;;;;;;;;;5033419;28;20159;-79
2021/12/17 11:38:42;;;;;;;16.90;7.47;;;;;;;;;;5017722;28;20122;-79
2021/12/17 11:41:22;;;;;;;12.10;6.47;;;;;;;;;;4972902;28;20166;-79
2021/12/17 11:43:54;;;;;;;11.35;5.68;;;;;;;;;;4976329;28;20457;-81
2021/12/17 11:46:40;;;;;;;9.05;4.88;;;;;;;;;;4995957;28;20041;-80
2021/12/17 11:49:15;;;;;;;10.93;6.03;;;;;;;;;;4989303;28;20642;-81
2021/12/17 11:51:44;;;;;;;11.30;5.72;;;;;;;;;;4992578;28;20037;-81
2021/12/17 11:54:25;;;;;;;11.02;5.68;;;;;;;;;;4970522;28;20650;-81
2021/12/17 11:56:54;;;;;;;10.43;5.75;;;;;;;;;;4958237;28;20038;-81
2021/12/17 11:59:35;;;;;;;11.27;5.97;;;;;;;;;;4994636;28;20037;-81
2021/12/17 12:02:12;;;;;;;14.10;7.18;;;;;;;;;;4989765;28;20041;-81
2021/12/17 12:04:48;;;;;;;11.23;6.15;;;;;;;;;;4993563;28;20052;-81
2021/12/17 12:07:19;;;;;;;10.77;6.22;;;;;;;;;;4990845;28;20037;-81
2021/12/17 12:09:57;;;;;;;18.55;10.85;;;;;;;;;;4979316;28;20042;-79
2021/12/17 12:12:26;;;;;;;14.43;7.47;;;;;;;;;;4993918;28;20044;-79
2021/12/17 12:14:56;;;;;;;14.18;6.60;;;;;;;;;;4995585;28;20060;-79
2021/12/17 12:17:41;;;;;;;14.40;7.90;;;;;;;;;;5002571;28;20063;-79
2021/12/17 12:20:08;;;;;;;14.30;8.00;;;;;;;;;;5032235;28;20078;-80
2021/12/17 12:22:43;;;;;;;13.40;7.43;;;;;;;;;;5033976;28;20110;-80
2021/12/17 12:25:12;;;;;;;;;;;;;;;;;;5029339;28;20041;-80
2021/12/17 12:27:51;;;;;;;19.25;12.50;;;;;;;;;;5028774;28;20067;-80
2021/12/17 12:30:35;;;;;;;19.92;12.60;;;;;;;;;;5018418;28;20036;-80
2021/12/17 12:33:09;;;;;;;24.25;15.02;;;;;;;;;;5009955;28;20036;-81
2021/12/17 12:35:37;;;;;;;23.23;15.10;;;;;;;;;;4995517;28;20037;-80
2021/12/17 12:38:16;;;;;;;20.60;14.70;;;;;;;;;;4998663;28;20126;-80
2021/12/17 12:40:46;;;;;;;17.45;11.10;;;;;;;;;;4997469;28;20048;-79
2021/12/17 12:43:26;;;;;;;17.27;10.07;;;;;;;;;;4994873;28;20049;-80
2021/12/17 12:45:54;;;;;;;18.67;10.85;;;;;;;;;;5017795;28;20060;-80
2021/12/17 12:48:33;;;;;;;15.38;9.43;;;;;;;;;;5016517;28;20040;-80
2021/12/17 12:51:18;;;;;;;15.57;9.25;;;;;;;;;;5029091;28;20037;-80
2021/12/17 12:53:49;;;;;;;17.48;10.15;;;;;;;;;;5017529;28;20111;-79
2021/12/17 12:56:23;;;;;;;14.75;9.48;;;;;;;;;;5030017;28;20071;-80
2021/12/17 12:58:53;;;;;;;17.52;10.05;;;;;;;;;;5013277;28;20033;-79
2021/12/17 13:01:21;;;;;;;16.42;9.73;;;;;;;;;;5024696;28;20061;-80
2021/12/17 13:03:51;;;;;;;20.27;10.25;;;;;;;;;;4984876;28;20040;-80
2021/12/17 13:06:19;;;;;;;14.07;8.80;;;;;;;;;;5016077;28;20060;-80
2021/12/17 13:09:00;;;;;;;16.95;8.88;;;;;;;;;;4999625;28;20112;-80
2021/12/17 13:11:27;;;;;;;13.43;7.55;;;;;;;;;;4996865;28;20104;-80
2021/12/17 13:13:58;;;;;;;11.38;6.63;;;;;;;;;;5013634;28;20076;-81
2021/12/17 13:16:44;;;;;;;12.15;6.30;;;;;;;;;;5015458;28;20045;-79
2021/12/17 13:22:02;;;;;;;12.02;7.65;;;;;;;;;;5010055;28;20102;-81
2021/12/17 13:24:39;;;;;;;14.95;10.23;;;;;;;;;;5015032;28;20037;-80
2021/12/17 13:27:13;;;;;;;10.88;5.68;;;;;;;;;;5008761;28;20082;-82
2021/12/17 13:29:45;;;;;;;10.73;6.47;;;;;;;;;;4992475;28;20506;-79
2021/12/17 13:32:20;;;;;;;11.60;6.53;;;;;;;;;;4992351;28;20362;-79
2021/12/17 13:34:52;;;;;;;11.07;5.90;;;;;;;;;;5000137;28;20053;-80
2021/12/17 13:37:32;;;;;;;11.10;5.80;;;;;;;;;;4999493;28;20037;-80
2021/12/17 13:40:08;;;;;;;10.80;5.75;;;;;;;;;;4991665;28;20049;-79
2021/12/17 13:42:48;;;;;;;12.07;5.32;;;;;;;;;;4996763;28;20052;-79
2021/12/17 13:45:19;;;;;;;13.65;7.43;;;;;;;;;;4993001;28;20049;-79
2021/12/17 13:47:53;;;;;;;14.05;5.95;;;;;;;;;;4996726;28;20049;-79
2021/12/17 13:50:29;;;;;;;13.32;7.15;;;;;;;;;;4996349;28;20037;-79
2021/12/17 13:53:07;;;;;;;10.15;5.72;;;;;;;;;;4993215;28;20040;-80
2021/12/17 13:55:40;;;;;;;11.27;6.22;;;;;;;;;;5003481;28;20580;-80
2021/12/17 13:58:30;;;;;;;9.88;4.90;;;;;;;;;;5006024;28;20784;-79
2021/12/17 14:00:59;;;;;;;11.85;6.13;;;;;;;;;;5008741;28;20044;-78
2021/12/17 14:03:41;;;;;;;10.80;5.45;;;;;;;;;;5007194;28;20137;-79
2021/12/17 14:06:35;;;;;;;11.38;5.45;;;;;;;;;;5010647;28;20053;-81
2021/12/17 14:09:01;;;;;;;10.27;5.65;;;;;;;;;;5015622;28;20045;-79
2021/12/17 14:11:34;;;;;;;10.25;5.13;;;;;;;;;;5001220;28;20679;-79
2021/12/17 14:14:02;;;;;;;14.68;6.47;;;;;;;;;;4993833;28;20040;-79
2021/12/17 14:16:30;;;;;;;12.52;5.95;;;;;;;;;;4997660;28;20548;-78
2021/12/17 14:18:59;;;;;;;12.98;7.55;;;;;;;;;;4991671;28;20125;-79
2021/12/17 14:21:31;;;;;;;12.35;6.47;;;;;;;;;;4996997;28;20025;-80
2021/12/17 14:24:01;;;;;;;16.13;8.23;;;;;;;;;;4995702;28;20025;-79
2021/12/17 14:26:29;;;;;;;12.52;7.18;;;;;;;;;;4999959;28;20179;-79
2021/12/17 14:29:09;;;;;;;15.63;7.75;;;;;;;;;;4977311;28;20204;-79
2021/12/17 14:31:40;;;;;;;14.00;8.55;;;;;;;;;;4995483;28;20276;-80
2021/12/17 14:34:09;;;;;;;12.27;7.40;;;;;;;;;;4993022;28;20038;-80
2021/12/17 14:36:41;;;;;;;13.65;8.38;;;;;;;;;;4994269;28;20047;-80
2021/12/17 14:39:13;;;;;;;12.40;6.63;;;;;;;;;;4991089;28;20033;-80
2021/12/17 14:41:51;;;;;;;12.80;7.43;;;;;;;;;;4997289;28;20065;-80
2021/12/17 14:44:35;;;;;;;12.63;6.72;;;;;;;;;;4985686;28;20124;-81
2021/12/17 14:47:57;;;;;;;10.57;5.78;;;;;;;;;;4990076;28;20042;-81
2021/12/17 15:01:50;;;;;;;15.00;7.18;;;;;;;;;;4991577;28;20048;-81
2021/12/17 15:04:07;;;;;;;14.27;8.82;;;;;;;;;;4994053;28;20152;-80
2021/12/17 15:06:34;;;;;;;15.73;8.90;;;;;;;;;;5000164;28;20059;-80
2021/12/17 15:09:02;;;;;;;12.20;7.68;;;;;;;;;;5012579;28;20025;-80
2021/12/17 15:11:37;;;;;;;15.48;9.68;;;;;;;;;;5004501;28;20108;-80
2021/12/17 15:14:04;;;;;;;15.35;8.35;;;;;;;;;;4999779;28;20037;-80
2021/12/17 15:16:31;;;;;;;13.98;7.28;;;;;;;;;;5000300;28;20064;-80
2021/12/17 15:19:00;;;;;;;15.70;9.27;;;;;;;;;;4995653;28;20132;-80
2021/12/17 15:21:28;;;;;;;15.80;9.95;;;;;;;;;;4995357;28;20053;-80
2021/12/17 15:23:57;;;;;;;19.80;10.90;;;;;;;;;;4995373;28;20429;-80
2021/12/17 15:26:23;;;;;;;15.57;9.75;;;;;;;;;;4998705;28;20034;-79
2021/12/17 15:28:53;;;;;;;18.67;10.73;;;;;;;;;;4994340;28;20129;-81
2021/12/17 15:31:21;;;;;;;20.27;10.52;;;;;;;;;;4995055;28;20041;-80
2021/12/17 15:33:48;;;;;;;17.63;9.73;;;;;;;;;;4998616;28;20103;-81
2021/12/17 15:36:17;;;;;;;18.45;11.10;;;;;;;;;;5012182;28;20041;-81
2021/12/17 15:38:45;;;;;;;20.80;11.80;;;;;;;;;;5021356;28;20032;-81
2021/12/17 15:41:14;;;;;;;26.95;11.93;;;;;;;;;;5013104;28;20029;-81
2021/12/17 15:43:42;;;;;;;22.20;13.50;;;;;;;;;;5017863;28;20151;-80
2021/12/17 15:46:10;;;;;;;20.58;12.32;;;;;;;;;;5013528;28;20510;-79
2021/12/17 15:48:45;;;;;;;18.35;10.38;;;;;;;;;;5016283;28;20047;-79
2021/12/17 15:51:14;;;;;;;17.55;8.88;;;;;;;;;;5001039;28;20842;-82
2021/12/17 15:53:42;;;;;;;16.05;9.35;;;;;;;;;;5017592;28;20159;-81
2021/12/17 15:56:10;;;;;;;15.30;8.60;;;;;;;;;;5012015;28;20040;-81
2021/12/17 15:58:38;;;;;;;66.90;47.20;;;;;;;;;;5015817;28;20120;-81
2021/12/17 16:01:10;;;;;;;34.67;12.20;;;;;;;;;;5012137;28;20069;-81
2021/12/17 16:03:38;;;;;;;21.85;11.00;;;;;;;;;;5017334;28;20922;-81
2021/12/17 16:06:08;;;;;;;22.80;11.27;;;;;;;;;;5008817;28;20049;-81
2021/12/17 16:08:42;;;;;;;16.15;8.88;;;;;;;;;;4999258;28;20064;-81
2021/12/17 16:11:19;;;;;;;19.27;11.00;;;;;;;;;;5015319;28;20037;-81
2021/12/17 16:22:05;;;;;;;18.73;11.68;;;;;;;;;;5007169;28;20039;-80
2021/12/17 16:24:32;;;;;;;16.88;9.32;;;;;;;;;;5012505;28;20025;-80
2021/12/17 16:26:58;;;;;;;;;;;;;;;;;;5013147;28;20629;-80
2021/12/17 16:29:27;;;;;;;14.45;9.20;;;;;;;;;;5013166;28;19916;-80
2021/12/17 16:31:55;;;;;;;16.05;10.00;;;;;;;;;;4997396;28;20037;-80
2021/12/17 16:34:27;;;;;;;18.48;10.55;;;;;;;;;;5015780;28;20045;-81
2021/12/17 16:36:53;;;;;;;16.45;10.32;;;;;;;;;;5010501;28;20052;-80
2021/12/17 16:39:22;;;;;;;17.45;10.90;;;;;;;;;;5019106;28;20033;-79
2021/12/17 16:41:49;;;;;;;22.73;13.90;;;;;;;;;;4997741;28;20033;-80
2021/12/17 16:44:39;;;;;;;23.73;14.13;;;;;;;;;;5013870;28;20414;-81
2021/12/17 16:47:09;;;;;;;32.60;17.67;;;;;;;;;;5012413;28;20053;-80
2021/12/17 16:49:37;;;;;;;41.20;22.88;;;;;;;;;;5016126;28;20067;-80
2021/12/17 16:52:06;;;;;;;38.88;23.98;;;;;;;;;;5013230;28;20593;-80
2021/12/17 16:54:34;;;;;;;34.00;19.42;;;;;;;;;;5016341;28;20902;-80
2021/12/17 16:57:03;;;;;;;34.63;19.88;;;;;;;;;;5030129;28;20117;-80
2021/12/17 16:59:30;;;;;;;29.98;17.88;;;;;;;;;;5030328;28;20044;-80
2021/12/17 17:01:58;;;;;;;31.50;18.40;;;;;;;;;;4999203;28;20045;-80
2021/12/17 17:04:27;;;;;;;25.05;14.40;;;;;;;;;;4999394;28;20052;-80
2021/12/17 17:06:54;;;;;;;26.10;15.18;;;;;;;;;;5008373;28;20036;-80
2021/12/17 17:09:22;;;;;;;25.50;13.82;;;;;;;;;;5003066;28;20552;-80
2021/12/17 17:12:00;;;;;;;18.88;10.65;;;;;;;;;;5016200;28;20702;-79
2021/12/17 17:14:28;;;;;;;20.50;11.32;;;;;;;;;;5017747;28;20045;-80
2021/12/17 17:16:56;;;;;;;18.95;10.73;;;;;;;;;;5028044;28;20047;-80
2021/12/17 17:19:24;;;;;;;23.40;12.35;;;;;;;;;;5012848;28;20605;-79
2021/12/17 17:21:54;;;;;;;20.58;12.70;;;;;;;;;;5010410;28;20041;-78
2021/12/17 17:24:24;;;;;;;22.83;12.05;;;;;;;;;;5002860;28;20128;-79
2021/12/17 17:26:50;;;;;;;17.10;10.63;;;;;;;;;;4997935;28;20861;-79
2021/12/17 17:29:18;;;;;;;20.88;11.80;;;;;;;;;;4998738;28;20441;-79
2021/12/17 17:31:47;;;;;;;21.73;11.60;;;;;;;;;;5014711;28;20033;-79
2021/12/17 17:34:16;;;;;;;18.83;11.63;;;;;;;;;;5032652;28;20616;-81
2021/12/17 17:36:44;;;;;;;36.20;25.08;;;;;;;;;;5029795;28;20036;-81
2021/12/17 17:39:16;;;;;;;27.48;18.63;;;;;;;;;;5031318;28;20037;-79
2021/12/17 17:41:45;;;;;;;22.77;15.55;;;;;;;;;;4990795;28;20048;-80
2021/12/17 17:44:13;;;;;;;20.30;13.00;;;;;;;;;;4961063;28;20945;-79
2021/12/17 17:46:40;;;;;;;26.98;18.05;;;;;;;;;;4989764;28;20594;-80
2021/12/17 17:49:09;;;;;;;19.80;13.60;;;;;;;;;;4991983;28;20037;-80
2021/12/17 17:51:39;;;;;;;18.83;12.70;;;;;;;;;;4994311;28;20124;-81
2021/12/17 17:54:07;;;;;;;17.50;11.57;;;;;;;;;;4977218;28;20026;-80
2021/12/17 17:56:36;;;;;;;20.27;13.82;;;;;;;;;;5011524;28;20088;-80
2021/12/17 17:59:05;;;;;;;21.92;13.23;;;;;;;;;;5009747;28;20058;-80
2021/12/17 18:01:32;;;;;;;22.80;14.73;;;;;;;;;;5000129;28;20116;-81
2021/12/17 18:04:03;;;;;;;38.25;26.05;;;;;;;;;;5011393;28;20045;-79
2021/12/17 18:06:31;;;;;;;35.05;22.88;;;;;;;;;;5030045;28;20045;-81